Latest Weather Observations for Coolangatta

IDQ60901

Issued at 7:41 am EST Saturday 30 July 2016 (issued every 10 minutes, with the page automatically refreshed every 10 minutes)

About weather observations | Map of Brisbane area stations | Latest observations for Brisbane area | Other Formats
Station Details ID: 040717 Name: COOLANGATTA Lat: -28.17 Lon: 153.51 Height: 4.0 m
Data from the previous 72 hours. | See also: Recent months at Coolangatta
Date/Time
EST
Temp
°C
App
Temp
°C
Dew
Point
°C
Rel
Hum
%
Delta-T
°C
Wind Press
QNH
hPa
Press
MSL
hPa
Rain since
9am
mm
Dir  Spd
km/h
Gust
km/h
Spd
kts
Gust
kts
30/07:30am 10.5 10.2 10.0 97 0.3 SSW 2 6 1 3 1020.2 1020.2 0.0
30/07:00am 8.2 7.3 7.8 97 0.2 WSW 2 7 1 4 1019.9 1019.9 0.0
30/06:32am 8.2 7.7 7.8 97 0.2 CALM 0 0 0 0 1019.7 1019.7 0.0
30/06:30am 7.4 6.7 6.8 96 0.3 CALM 0 0 0 0 1019.7 1019.7 0.0
30/06:03am 8.5 8.1 8.1 97 0.2 CALM 0 0 0 0 1019.4 1019.4 0.0
30/06:00am 8.6 8.2 8.2 97 0.2 CALM 0 0 0 0 1019.4 1019.4 0.0
30/05:30am 8.3 6.4 7.7 96 0.3 WSW 7 9 4 5 1019.1 1019.1 0.0
30/05:00am 6.9 4.7 6.0 94 0.4 WSW 7 9 4 5 1018.9 1018.9 0.0
30/04:30am 9.0 7.5 8.4 96 0.3 SSW 6 7 3 4 1018.9 1018.9 0.0
30/04:00am 9.6 9.0 8.8 95 0.4 SW 2 7 1 4 1018.8 1018.8 0.0
30/03:30am 9.6 8.1 9.0 96 0.3 WSW 7 9 4 5 1018.9 1018.9 0.0
30/03:00am 9.5 8.5 8.7 95 0.4 WSW 4 7 2 4 1019.0 1019.0 0.0
30/02:30am 8.9 8.4 7.7 92 0.6 CALM 0 0 0 0 1019.2 1019.2 0.0
30/02:00am 9.9 8.3 8.7 92 0.6 WSW 7 9 4 5 1019.4 1019.4 0.0
30/01:30am 10.1 8.7 8.7 91 0.7 WNW 6 11 3 6 1019.5 1019.5 0.0
30/01:00am 10.9 8.7 9.2 89 0.8 WNW 11 17 6 9 1019.9 1019.9 0.0
30/12:30am 10.1 8.4 8.5 90 0.8 WNW 7 9 4 5 1020.0 1020.0 0.0
30/12:00am 11.1 9.9 9.4 89 0.8 WSW 6 7 3 4 1020.1 1020.1 0.0
 
Date/Time
EST
Temp
°C
App
Temp
°C
Dew
Point
°C
Rel
Hum
%
Delta-T
°C
Wind Press
QNH
hPa
Press
MSL
hPa
Rain since
9am
mm
Dir  Spd
km/h
Gust
km/h
Spd
kts
Gust
kts
29/11:30pm 11.6 10.0 8.6 82 1.5 W 7 9 4 5 1020.4 1020.4 0.0
29/11:00pm 13.6 12.2 9.5 76 2.1 WNW 7 11 4 6 1020.4 1020.4 0.0
29/10:30pm 14.9 13.1 9.5 70 2.8 WNW 9 13 5 7 1020.5 1020.5 0.0
29/10:00pm 15.2 12.5 9.1 67 3.1 WNW 13 17 7 9 1020.6 1020.6 0.0
29/09:30pm 15.2 12.9 9.1 67 3.1 WNW 11 15 6 8 1020.5 1020.5 0.0
29/09:00pm 15.0 12.6 8.7 66 3.2 WNW 11 15 6 8 1020.5 1020.5 0.0
29/08:30pm 15.0 12.6 8.5 65 3.3 WNW 11 13 6 7 1020.4 1020.4 0.0
29/08:00pm 15.3 12.8 8.3 63 3.5 WNW 11 15 6 8 1020.2 1020.2 0.0
29/07:30pm 15.0 12.7 8.9 67 3.1 WNW 11 15 6 8 1020.0 1020.0 0.0
29/07:00pm 16.8 15.1 9.7 63 3.7 NW 9 11 5 6 1019.8 1019.8 0.0
29/06:30pm 18.4 16.1 10.3 59 4.3 NNW 13 20 7 11 1019.6 1019.6 0.0
29/06:00pm 18.9 15.5 11.2 61 4.2 N 20 28 11 15 1019.4 1019.4 0.0
29/05:30pm 19.2 15.6 10.7 58 4.6 N 20 28 11 15 1019.1 1019.1 0.0
29/05:00pm 19.8 16.3 11.0 57 4.8 N 20 26 11 14 1019.0 1019.0 0.0
29/04:30pm 20.2 16.3 10.9 55 5.1 N 22 28 12 15 1018.9 1018.9 0.0
29/04:00pm 20.8 17.1 10.3 51 5.7 N 20 26 11 14 1018.9 1018.9 0.0
29/03:30pm 21.3 17.2 10.2 49 6.0 N 22 28 12 15 1019.0 1019.0 0.0
29/03:00pm 21.4 16.7 9.3 46 6.4 N 24 30 13 16 1019.1 1019.1 0.0
29/02:30pm 21.9 17.5 9.1 44 6.8 N 22 30 12 16 1019.2 1019.2 0.0
29/02:00pm 21.9 17.4 8.4 42 7.1 N 22 28 12 15 1019.5 1019.5 0.0
29/01:30pm 22.1 17.7 7.5 39 7.6 NNE 20 28 11 15 1019.7 1019.7 0.0
29/01:00pm 22.0 17.1 6.7 37 7.8 N 22 26 12 14 1020.1 1020.1 0.0
29/12:30pm 22.7 18.8 5.2 32 8.7 NNW 15 28 8 15 1020.7 1020.7 0.0
29/12:00pm 22.5 18.8 4.5 31 8.8 NW 13 17 7 9 1021.4 1021.4 0.0
29/11:30am 22.3 19.2 5.7 34 8.3 NW 11 19 6 10 1021.9 1021.9 0.0
29/11:00am 21.8 18.6 5.3 34 8.2 NW 11 17 6 9 1022.4 1022.4 0.0
29/10:30am 21.3 18.6 7.2 40 7.2 WNW 11 19 6 10 1022.7 1022.7 0.0
29/10:00am 20.4 18.4 8.7 47 6.1 NW 9 15 5 8 1023.1 1023.1 0.0
29/09:30am 18.4 17.0 9.7 57 4.6 W 7 11 4 6 1023.3 1023.3 0.0
29/09:00am 17.1 17.5 11.2 68 3.2 CALM 0 0 0 0 1023.4 1023.4 0.0
29/08:30am 14.2 14.4 10.6 79 1.9 CALM 0 0 0 0 1023.2 1023.2 0.0
29/08:00am 11.5 11.7 10.4 93 0.6 CALM 0 0 0 0 1023.1 1023.1 0.0
29/07:30am 10.1 10.0 9.6 97 0.2 CALM 0 0 0 0 1023.0 1023.0 0.0
29/07:00am 8.5 7.3 8.1 97 0.2 SW 4 7 2 4 1023.0 1023.0 0.0
29/06:53am 7.9 7.3 7.5 97 0.2 CALM 0 0 0 0 1023.0 1023.0 0.0
29/06:30am 8.5 8.1 8.1 97 0.2 CALM 0 0 0 0 1022.8 1022.8 0.0
29/06:17am 7.8 7.2 7.4 97 0.2 CALM 0 2 0 1 1022.7 1022.7 0.0
29/06:04am 7.7 7.1 7.3 97 0.2 CALM 0 0 0 0 1022.6 1022.6 0.0
29/06:00am 8.3 7.8 7.9 97 0.2 CALM 0 0 0 0 1022.6 1022.6 0.0
29/05:41am 8.0 7.4 7.6 97 0.2 CALM 0 0 0 0 1022.3 1022.3 0.0
29/05:30am 8.3 7.8 7.9 97 0.2 CALM 0 0 0 0 1022.2 1022.2 0.0
29/05:00am 9.1 8.8 8.6 97 0.2 CALM 0 0 0 0 1021.9 1021.9 0.0
29/04:34am 9.2 7.8 8.7 97 0.2 SW 6 7 3 4 1021.8 1021.8 0.0
29/04:30am 9.1 8.0 8.6 97 0.2 SW 4 7 2 4 1021.7 1021.7 0.0
29/04:13am 9.1 8.8 8.6 97 0.2 CALM 0 0 0 0 1021.7 1021.7 0.0
29/04:08am 9.1 8.8 8.6 97 0.2 CALM 0 0 0 0 1021.6 1021.6 0.0
29/04:00am 9.3 9.0 8.7 96 0.3 CALM 0 0 0 0 1021.7 1021.7 0.0
29/03:46am 9.0 7.9 8.4 96 0.3 SW 4 6 2 3 1021.7 1021.7 0.0
29/03:41am 9.0 7.9 8.4 96 0.3 SW 4 7 2 4 1021.7 1021.7 0.0
29/03:30am 8.7 7.5 8.1 96 0.3 SW 4 7 2 4 1021.7 1021.7 0.0
29/03:21am 8.8 7.6 8.2 96 0.3 SW 4 6 2 3 1021.8 1021.8 0.0
29/03:00am 9.8 9.6 9.2 96 0.3 CALM 0 0 0 0 1021.8 1021.8 0.0
29/02:30am 9.6 8.2 9.0 96 0.3 SW 6 7 3 4 1021.9 1021.9 0.0
29/02:00am 9.6 8.2 9.0 96 0.3 SSW 6 6 3 3 1022.1 1022.1 0.0
29/01:30am 9.7 8.3 8.9 95 0.4 SW 6 7 3 4 1022.1 1022.1 0.0
29/01:00am 9.8 9.6 9.0 95 0.4 CALM 0 0 0 0 1022.2 1022.2 0.0
29/12:30am 10.3 10.2 9.4 94 0.4 CALM 0 6 0 3 1022.2 1022.2 0.0
29/12:00am 10.6 9.7 9.4 92 0.6 SW 4 7 2 4 1022.4 1022.4 0.0
 
Date/Time
EST
Temp
°C
App
Temp
°C
Dew
Point
°C
Rel
Hum
%
Delta-T
°C
Wind Press
QNH
hPa
Press
MSL
hPa
Rain since
9am
mm
Dir  Spd
km/h
Gust
km/h
Spd
kts
Gust
kts
28/11:30pm 10.5 9.3 9.4 93 0.5 SW 6 7 3 4 1022.5 1022.5 0.0
28/11:00pm 10.4 9.0 8.8 90 0.8 SW 6 7 3 4 1022.7 1022.7 0.0
28/10:30pm 11.2 11.1 9.6 90 0.8 CALM 0 6 0 3 1022.9 1022.9 0.0
28/10:00pm 11.1 9.9 9.5 90 0.8 SW 6 9 3 5 1023.1 1023.1 0.0
28/09:30pm 11.3 10.1 9.7 90 0.8 SW 6 9 3 5 1023.1 1023.1 0.0
28/09:00pm 11.3 9.5 9.4 88 0.9 WSW 9 11 5 6 1023.2 1023.2 0.0
28/08:30pm 11.9 10.8 10.0 88 1.0 WSW 6 9 3 5 1023.3 1023.3 0.0
28/08:00pm 12.3 11.2 10.0 86 1.2 SW 6 9 3 5 1023.3 1023.3 0.0
28/07:30pm 12.6 10.1 9.8 83 1.4 WSW 13 15 7 8 1023.3 1023.3 0.0
28/07:00pm 13.6 11.3 10.6 82 1.6 WSW 13 15 7 8 1023.0 1023.0 0.0
28/06:30pm 14.1 12.1 10.3 78 2.0 WSW 11 13 6 7 1022.8 1022.8 0.0
28/06:00pm 14.7 13.1 10.1 74 2.4 WSW 9 11 5 6 1022.7 1022.7 0.0
28/05:30pm 16.4 15.1 10.0 66 3.4 S 7 9 4 5 1022.4 1022.4 0.0
28/05:00pm 17.4 15.4 10.1 62 3.8 SSE 11 17 6 9 1022.2 1022.2 0.0
28/04:30pm 18.6 14.8 9.9 57 4.6 SE 20 26 11 14 1021.9 1021.9 0.0
28/04:00pm 19.3 15.0 9.2 52 5.3 SE 22 30 12 16 1021.9 1021.9 0.0
28/03:30pm 19.9 15.9 8.9 49 5.8 SE 20 28 11 15 1021.8 1021.8 0.0
28/03:00pm 20.3 15.9 8.9 48 6.0 SE 22 28 12 15 1021.7 1021.7 0.0
28/02:30pm 20.6 16.0 6.5 40 7.1 ESE 20 26 11 14 1021.7 1021.7 0.0
28/02:00pm 20.8 16.1 6.0 38 7.4 ESE 20 26 11 14 1021.7 1021.7 0.0
28/01:30pm 21.4 16.7 5.3 35 8.0 ESE 19 26 10 14 1021.7 1021.7 0.0
28/01:00pm 21.3 18.0 6.4 38 7.5 SSW 13 20 7 11 1022.1 1022.1 0.0
28/12:30pm 20.9 17.5 6.1 38 7.4 SSE 13 22 7 12 1022.4 1022.4 0.0
28/12:00pm 20.7 16.9 5.9 38 7.3 S 15 26 8 14 1022.8 1022.8 0.0
28/11:30am 20.6 16.3 6.9 41 7.0 S 19 28 10 15 1023.2 1023.2 0.0
28/11:00am 19.7 15.2 6.1 41 6.7 S 19 28 10 15 1023.5 1023.5 0.0
28/10:30am 19.9 16.2 6.3 41 6.8 S 15 22 8 12 1023.8 1023.8 0.0
28/10:00am 19.1 15.3 5.6 41 6.6 SSW 15 22 8 12 1023.8 1023.8 0.0
28/09:30am 18.3 14.3 4.8 41 6.5 SSW 15 22 8 12 1023.8 1023.8 0.0
28/09:00am 17.7 14.2 5.6 45 5.8 SSW 13 17 7 9 1023.6 1023.6 0.0
28/08:30am 16.7 13.2 5.3 47 5.5 SSW 13 22 7 12 1023.3 1023.3 0.0
28/08:00am 15.4 12.3 5.6 52 4.7 SSW 11 17 6 9 1023.2 1023.2 0.0
28/07:30am 12.2 10.8 8.9 80 1.6 SSW 6 9 3 5 1022.8 1022.8 0.0
28/07:00am 8.4 6.0 5.3 81 1.4 SSE 7 9 4 5 1022.3 1022.3 0.0
28/06:30am 7.5 5.2 4.8 83 1.2 S 6 7 3 4 1022.1 1022.1 0.0
28/06:00am 7.1 4.1 3.9 80 1.4 SSW 9 11 5 6 1021.7 1021.7 0.0
28/05:30am 8.3 5.8 3.6 72 2.0 SE 6 7 3 4 1021.2 1021.2 0.0
28/05:00am 11.2 8.3 4.4 63 3.0 S 9 11 5 6 1020.9 1020.9 0.0
28/04:30am 9.6 7.9 4.0 68 2.5 S 2 7 1 4 1020.6 1020.6 0.0
28/04:00am 9.2 6.6 3.2 66 2.6 SSE 6 9 3 5 1020.4 1020.4 0.0
28/03:30am 11.2 8.7 4.9 65 2.9 SW 7 9 4 5 1020.6 1020.6 0.0
28/03:00am 9.3 6.3 4.3 71 2.2 SW 9 13 5 7 1020.7 1020.7 0.0
28/02:30am 7.3 5.0 5.0 85 1.0 SSW 6 13 3 7 1020.7 1020.7 0.0
28/02:00am 6.6 4.2 4.3 85 1.0 S 6 7 3 4 1020.7 1020.7 0.0
28/01:30am 6.8 5.6 4.8 87 0.9 CALM 0 0 0 0 1021.1 1021.1 0.0
28/01:00am 6.6 3.7 4.8 88 0.8 WSW 9 11 5 6 1021.1 1021.1 0.0
28/12:30am 6.3 4.0 4.9 91 0.6 W 6 7 3 4 1021.0 1021.0 0.0
28/12:00am 6.7 5.6 5.3 91 0.6 CALM 0 0 0 0 1020.8 1020.8 0.0
 
Date/Time
EST
Temp
°C
App
Temp
°C
Dew
Point
°C
Rel
Hum
%
Delta-T
°C
Wind Press
QNH
hPa
Press
MSL
hPa
Rain since
9am
mm
Dir  Spd
km/h
Gust
km/h
Spd
kts
Gust
kts
27/11:30pm 7.5 6.4 5.1 85 1.1 CALM 0 0 0 0 1020.7 1020.7 0.0
27/11:00pm 9.5 6.5 6.2 80 1.5 SW 11 13 6 7 1020.5 1020.5 0.0
27/10:30pm 9.3 6.0 6.6 83 1.3 WSW 13 15 7 8 1020.3 1020.3 0.0
27/10:00pm 9.3 6.2 7.3 87 0.9 WSW 13 17 7 9 1020.2 1020.2 0.0
27/09:30pm 9.8 6.7 7.1 83 1.3 WSW 13 15 7 8 1020.0 1020.0 0.0
27/09:00pm 10.4 7.1 8.0 85 1.2 WSW 15 17 8 9 1019.9 1019.9 0.0
27/08:30pm 9.9 7.0 8.0 88 0.9 WSW 13 15 7 8 1019.8 1019.8 0.0
27/08:00pm 9.9 7.8 8.2 89 0.8 WSW 9 13 5 7 1019.6 1019.6 0.0
27/07:30pm 10.1 8.5 7.9 86 1.1 S 6 11 3 6 1019.2 1019.2 0.0
27/07:00pm 10.6 8.1 8.2 85 1.2 WSW 11 13 6 7 1018.4 1018.4 0.0
27/06:30pm 11.3 9.8 8.5 83 1.4 SW 6 9 3 5 1017.9 1017.9 0.0
27/06:00pm 11.8 9.7 8.1 78 1.8 WSW 9 11 5 6 1017.3 1017.3 0.0
27/05:30pm 13.3 11.4 6.9 65 3.1 WSW 6 7 3 4 1017.0 1017.0 0.0
27/05:00pm 16.2 13.6 6.3 52 4.8 WSW 9 11 5 6 1016.6 1016.6 0.0
27/04:30pm 18.3 15.5 5.2 42 6.3 WNW 9 11 5 6 1016.0 1016.0 0.0
27/04:00pm 18.1 14.8 4.7 41 6.4 NNW 11 13 6 7 1015.9 1015.9 0.0
27/03:30pm 18.9 15.1 3.9 37 7.1 NW 13 17 7 9 1015.8 1015.8 0.0
27/03:00pm 19.9 16.2 4.4 36 7.5 NNW 13 15 7 8 1015.4 1015.4 0.0
27/02:30pm 19.8 16.4 3.9 35 7.6 N 11 15 6 8 1015.5 1015.5 0.0
27/02:00pm 19.5 15.6 -1.6 24 9.0 N 9 13 5 7 1015.8 1015.8 0.0
27/01:30pm 19.0 16.3 3.6 36 7.2 NNE 7 11 4 6 1016.1 1016.1 0.0
27/01:00pm 18.7 15.8 4.5 39 6.8 NNE 9 11 5 6 1016.2 1016.2 0.0
27/12:30pm 19.2 16.9 4.6 38 7.0 N 6 9 3 5 1016.6 1016.6 0.0
27/12:00pm 19.3 16.8 4.6 38 7.1 NE 7 11 4 6 1016.5 1016.5 0.0
27/11:30am 18.3 16.8 4.8 41 6.5 NW 2 7 1 4 1017.1 1017.1 0.0
27/11:00am 17.9 15.3 3.4 38 6.7 NNW 6 9 3 5 1017.7 1017.7 0.0
27/10:30am 16.8 15.3 5.1 46 5.6 NW 2 6 1 3 1017.7 1017.7 0.0
27/10:00am 16.8 14.6 5.4 47 5.5 NNW 6 7 3 4 1017.5 1017.5 0.0
27/09:30am 14.9 13.1 9.3 69 2.9 WSW 9 11 5 6 1018.1 1018.1 0.0
27/09:00am 14.4 14.2 9.2 71 2.6 CALM 0 0 0 0 1017.5 1017.5 0.0
27/08:30am 13.2 12.4 8.1 71 2.5 W 2 6 1 3 1017.7 1017.7 0.0
27/08:00am 13.0 12.1 9.4 79 1.8 SW 4 9 2 5 1017.7 1017.7 0.0

Latest Capital City Observations: Canberra | Sydney | Melbourne | Brisbane | Adelaide | Perth | Hobart | Darwin

Other Formats:

Comma delimited format used in spreadsheet applications
http://www.bom.gov.au/fwo/IDQ60901/IDQ60901.94592.axf

JavaScript Object Notation format (JSON) in row-major order
http://www.bom.gov.au/fwo/IDQ60901/IDQ60901.94592.json